createdAt,value
2022-10-01T00:04:01.586Z,4.10
2022-10-01T00:09:03.507Z,2.78
2022-10-01T00:14:05.315Z,2.70
2022-10-01T00:19:07.002Z,1.98
2022-10-01T00:24:12.473Z,2.75
2022-10-01T00:29:15.524Z,4.53
2022-10-01T00:34:17.092Z,2.20
2022-10-01T00:39:19.378Z,2.10
2022-10-01T00:44:33.317Z,1.83
2022-10-01T00:49:37.403Z,2.58
2022-10-01T00:55:01.404Z,1.88
2022-10-01T01:00:06.633Z,1.50
2022-10-01T01:05:10.205Z,1.45
2022-10-01T01:10:14.980Z,2.40
2022-10-01T01:15:42.363Z,3.50
2022-10-01T01:20:54.803Z,1.60
2022-10-01T01:26:16.380Z,1.73
2022-10-01T01:31:25.407Z,1.40
2022-10-01T01:36:32.589Z,2.23
2022-10-01T01:41:39.715Z,3.03
2022-10-01T01:46:46.251Z,2.30
2022-10-01T01:52:16.386Z,1.40
2022-10-01T01:57:20.007Z,1.90
2022-10-01T02:02:28.830Z,1.63
2022-10-01T02:07:30.586Z,1.33
2022-10-01T02:13:05.171Z,2.38
2022-10-01T02:18:30.198Z,2.22
2022-10-01T02:23:39.467Z,2.95
2022-10-01T02:28:42.606Z,2.65
2022-10-01T02:33:46.979Z,2.28
2022-10-01T02:38:50.803Z,1.40
2022-10-01T02:44:00.340Z,1.98
2022-10-01T02:49:04.419Z,4.88
2022-10-01T02:54:16.422Z,1.63
2022-10-01T02:59:20.348Z,4.80
2022-10-01T03:04:22.030Z,2.75
2022-10-01T03:09:23.788Z,1.88
2022-10-01T03:14:25.700Z,1.70
2022-10-01T03:19:27.386Z,3.13
2022-10-01T03:24:29.360Z,2.70
2022-10-01T03:29:31.362Z,4.50
2022-10-01T03:34:32.985Z,5.05
2022-10-01T03:39:34.966Z,3.05
2022-10-01T03:44:36.624Z,6.85
2022-10-01T03:49:38.386Z,5.43
2022-10-01T03:54:40.123Z,5.38
2022-10-01T03:59:42.233Z,9.13
2022-10-01T04:04:43.898Z,6.47
2022-10-01T04:09:45.557Z,6.88
2022-10-01T04:14:47.211Z,19.65
2022-10-01T04:19:48.798Z,10.73
2022-10-01T04:24:50.485Z,8.48
2022-10-01T04:29:52.081Z,6.78
2022-10-01T04:34:53.743Z,10.10
2022-10-01T04:39:55.363Z,12.85
2022-10-01T04:44:57.385Z,9.98
2022-10-01T04:49:58.938Z,6.90
2022-10-01T04:55:01.243Z,9.82
2022-10-01T05:00:05.728Z,9.57
2022-10-01T05:05:08.106Z,7.07
2022-10-01T05:10:13.520Z,12.35
2022-10-01T05:15:16.779Z,7.88
2022-10-01T05:20:23.825Z,4.63
2022-10-01T05:25:25.507Z,7.38
2022-10-01T05:30:27.377Z,7.25
2022-10-01T05:35:29.607Z,5.57
2022-10-01T05:40:31.473Z,8.00
2022-10-01T05:45:33.820Z,4.35
2022-10-01T05:50:40.255Z,4.35
2022-10-01T05:55:42.163Z,6.25
2022-10-01T06:00:44.287Z,8.15
2022-10-01T06:05:46.148Z,8.00
2022-10-01T06:10:48.327Z,11.02
2022-10-01T06:15:52.293Z,7.00
2022-10-01T06:20:54.107Z,6.32
2022-10-01T06:25:55.732Z,9.15
2022-10-01T06:30:57.504Z,8.50
2022-10-01T06:35:59.375Z,6.88
2022-10-01T06:41:03.759Z,7.55
2022-10-01T06:46:05.891Z,7.85
2022-10-01T06:51:08.709Z,8.15
2022-10-01T06:56:10.411Z,9.60
2022-10-01T07:01:12.080Z,7.28
2022-10-01T07:06:13.847Z,9.95
2022-10-01T07:11:16.078Z,10.00
2022-10-01T07:16:17.815Z,14.40
2022-10-01T07:21:19.445Z,12.05
2022-10-01T07:26:21.089Z,11.32
2022-10-01T07:31:24.233Z,6.38
2022-10-01T07:36:25.948Z,8.88
2022-10-01T07:41:27.501Z,8.25
2022-10-01T07:46:33.943Z,8.45
2022-10-01T07:51:36.812Z,10.00
2022-10-01T07:56:38.613Z,5.53
2022-10-01T08:01:40.279Z,10.70
2022-10-01T08:06:42.703Z,9.93
2022-10-01T08:11:45.466Z,5.93
2022-10-01T08:16:47.708Z,9.43
2022-10-01T08:21:49.473Z,10.23
2022-10-01T08:26:53.458Z,7.47
2022-10-01T08:31:56.278Z,7.55
2022-10-01T08:36:57.914Z,11.45
2022-10-01T08:42:16.159Z,9.57
2022-10-01T08:47:38.690Z,5.85
2022-10-01T08:52:57.955Z,12.90
2022-10-01T08:58:03.638Z,6.70
2022-10-01T09:03:08.576Z,10.77
2022-10-01T09:08:45.973Z,10.77
2022-10-01T09:14:04.263Z,7.07
2022-10-01T09:19:55.021Z,11.60
2022-10-01T09:25:05.107Z,12.50
2022-10-01T09:30:20.665Z,12.82
2022-10-01T09:35:33.322Z,8.40
2022-10-01T09:40:38.713Z,11.32
2022-10-01T09:45:40.877Z,6.68
2022-10-01T09:50:55.731Z,10.18
2022-10-01T09:56:03.574Z,13.35
2022-10-01T10:01:18.271Z,12.15
2022-10-01T10:06:27.253Z,8.63
2022-10-01T10:11:31.805Z,7.40
2022-10-01T10:16:37.316Z,13.43
2022-10-01T10:21:54.052Z,8.13
2022-10-01T10:27:01.583Z,7.53
2022-10-01T10:32:14.823Z,15.55
2022-10-01T10:37:21.931Z,15.45
2022-10-01T10:42:24.402Z,7.15
2022-10-01T10:47:28.488Z,10.68
2022-10-01T10:52:33.923Z,6.65
2022-10-01T10:57:36.660Z,9.93
2022-10-01T11:02:41.296Z,5.97
2022-10-01T11:07:45.105Z,11.63
2022-10-01T11:12:56.661Z,6.30
2022-10-01T11:18:10.608Z,7.95
2022-10-01T11:23:39.437Z,9.88
2022-10-01T11:28:52.683Z,6.97
2022-10-01T11:34:31.737Z,12.75
2022-10-01T11:39:35.610Z,8.95
2022-10-01T11:44:47.019Z,8.70
2022-10-01T11:50:03.775Z,9.57
2022-10-01T11:55:41.266Z,10.15
2022-10-01T12:00:51.417Z,7.32
2022-10-01T12:05:56.954Z,9.05
2022-10-01T12:11:11.818Z,8.23
2022-10-01T12:16:20.919Z,8.93
2022-10-01T12:21:27.504Z,21.08
2022-10-01T12:26:54.059Z,12.13
2022-10-01T12:32:07.752Z,9.23
2022-10-01T12:37:27.348Z,9.68
2022-10-01T12:43:05.012Z,9.20
2022-10-01T12:48:15.805Z,12.20
2022-10-01T12:53:38.588Z,9.50
2022-10-01T12:58:53.358Z,11.75
2022-10-01T13:04:17.328Z,7.63
2022-10-01T13:09:38.342Z,8.55
2022-10-01T13:14:44.381Z,6.60
2022-10-01T13:19:55.324Z,10.75
2022-10-01T13:25:22.578Z,10.73
2022-10-01T13:30:27.400Z,9.95
2022-10-01T13:35:35.716Z,8.52
2022-10-01T13:40:38.174Z,10.50
2022-10-01T13:45:43.203Z,5.15
2022-10-01T13:51:03.167Z,9.93
2022-10-01T14:01:21.290Z,7.65
2022-10-01T14:06:35.276Z,6.22
2022-10-01T14:11:56.917Z,8.98
2022-10-01T14:17:00.333Z,7.68
2022-10-01T14:22:34.265Z,10.00
2022-10-01T14:27:50.314Z,9.38
2022-10-01T14:33:09.171Z,8.82
2022-10-01T14:38:18.494Z,5.53
2022-10-01T14:43:25.297Z,7.32
2022-10-01T14:48:32.451Z,6.15
2022-10-01T14:53:37.591Z,9.23
2022-10-01T14:58:46.528Z,9.52
2022-10-01T15:03:49.599Z,7.17
2022-10-01T15:08:54.757Z,7.10
2022-10-01T15:14:03.112Z,10.43
2022-10-01T15:19:12.113Z,6.43
2022-10-01T15:24:19.543Z,7.90
2022-10-01T15:29:21.383Z,9.20
2022-10-01T15:34:26.057Z,4.82
2022-10-01T15:39:31.479Z,3.17
2022-10-01T15:44:38.479Z,8.45
2022-10-01T15:49:40.425Z,6.72
2022-10-01T15:54:44.632Z,7.25
2022-10-01T15:59:47.559Z,8.60
2022-10-01T16:04:52.880Z,5.75
2022-10-01T16:09:59.523Z,8.75
2022-10-01T16:15:03.831Z,10.38
2022-10-01T16:20:15.719Z,11.93
2022-10-01T16:25:31.286Z,12.75
2022-10-01T16:30:34.158Z,7.38
2022-10-01T16:35:36.069Z,5.25
2022-10-01T16:40:42.492Z,8.73
2022-10-01T16:45:44.633Z,8.57
2022-10-01T16:50:47.082Z,11.30
2022-10-01T16:55:49.969Z,8.32
2022-10-01T17:00:51.883Z,11.55
2022-10-01T17:05:54.380Z,11.77
2022-10-01T17:11:00.571Z,9.25
2022-10-01T17:16:05.934Z,9.80
2022-10-01T17:21:09.531Z,7.93
2022-10-01T17:26:11.346Z,8.82
2022-10-01T17:31:17.965Z,11.55
2022-10-01T17:36:20.055Z,7.57
2022-10-01T17:41:21.810Z,7.22
2022-10-01T17:46:23.461Z,8.95
2022-10-01T17:51:25.912Z,7.35
2022-10-01T17:56:27.858Z,6.80
2022-10-01T18:01:29.578Z,6.55
2022-10-01T18:06:31.243Z,3.58
2022-10-01T18:11:33.968Z,5.93
2022-10-01T18:16:36.266Z,6.95
2022-10-01T18:21:38.043Z,11.55
2022-10-01T18:26:39.958Z,9.90
2022-10-01T18:31:44.703Z,11.02
2022-10-01T18:37:00.806Z,8.68
2022-10-01T18:42:10.539Z,5.25
2022-10-01T18:47:31.683Z,12.80
2022-10-01T18:52:40.478Z,14.77
2022-10-01T18:58:05.140Z,6.73
2022-10-01T19:03:42.297Z,8.93
2022-10-01T19:09:18.059Z,7.38
2022-10-01T19:14:39.035Z,7.47
2022-10-01T19:20:03.395Z,12.32
2022-10-01T19:25:50.167Z,10.68
2022-10-01T19:31:19.822Z,8.77
2022-10-01T19:36:33.739Z,12.60
2022-10-01T19:41:44.474Z,9.55
2022-10-01T19:46:49.586Z,12.38
2022-10-01T19:51:59.083Z,7.68
2022-10-01T19:57:17.139Z,10.30
2022-10-01T20:02:33.453Z,10.38
2022-10-01T20:07:58.291Z,12.38
2022-10-01T20:13:21.624Z,10.45
2022-10-01T20:18:28.243Z,13.43
2022-10-01T20:23:58.053Z,13.70
2022-10-01T20:29:11.764Z,9.87
2022-10-01T20:34:40.361Z,10.50
2022-10-01T20:39:48.334Z,10.32
2022-10-01T20:44:52.441Z,8.70
2022-10-01T20:50:45.626Z,8.70
2022-10-01T20:56:19.024Z,12.75
2022-10-01T21:01:23.978Z,10.20
2022-10-01T21:06:35.395Z,7.53
2022-10-01T21:11:45.391Z,12.52
2022-10-01T21:16:56.364Z,9.32
2022-10-01T21:22:07.581Z,11.13
2022-10-01T21:27:30.945Z,9.82
2022-10-01T21:32:41.525Z,11.32
2022-10-01T21:38:11.071Z,10.52
2022-10-01T21:43:46.310Z,7.77
2022-10-01T21:49:03.728Z,5.65
2022-10-01T21:54:36.842Z,6.40
2022-10-01T22:00:08.099Z,10.20
2022-10-01T22:05:23.455Z,10.15
2022-10-01T22:10:48.457Z,9.13
2022-10-01T22:15:54.655Z,10.50
2022-10-01T22:20:59.375Z,7.65
2022-10-01T22:26:06.001Z,10.52
2022-10-01T22:31:14.810Z,8.75
2022-10-01T22:36:40.538Z,12.93
2022-10-01T22:42:15.491Z,8.93
2022-10-01T22:47:24.939Z,11.43
2022-10-01T22:52:31.281Z,16.85
2022-10-01T22:57:39.134Z,12.70
2022-10-01T23:02:55.984Z,11.80
2022-10-01T23:07:57.738Z,11.38
2022-10-01T23:13:05.451Z,8.48
2022-10-01T23:18:34.976Z,10.57
2022-10-01T23:23:37.117Z,7.50
2022-10-01T23:28:48.900Z,8.02
2022-10-01T23:34:19.173Z,5.63
2022-10-01T23:39:58.560Z,7.88
2022-10-01T23:45:27.433Z,6.63
2022-10-01T23:50:48.742Z,8.95
2022-10-01T23:56:18.884Z,6.68
